sensor_id;sensor_type;location;lat;lon;timestamp;temperature;humidity
42913;DHT22;50720;54.324;18.558;2024-03-23T00:56:21;7.50;99.90
42913;DHT22;50720;54.324;18.558;2024-03-23T00:59:03;7.50;99.90
42913;DHT22;50720;54.324;18.558;2024-03-23T01:01:45;7.50;99.90
42913;DHT22;50720;54.324;18.558;2024-03-23T01:04:28;7.50;99.90
42913;DHT22;50720;54.324;18.558;2024-03-23T01:07:09;7.40;99.90
42913;DHT22;50720;54.324;18.558;2024-03-23T01:09:53;7.40;99.90
42913;DHT22;50720;54.324;18.558;2024-03-23T01:12:35;7.40;99.90
42913;DHT22;50720;54.324;18.558;2024-03-23T01:17:59;7.40;99.90
42913;DHT22;50720;54.324;18.558;2024-03-23T01:20:41;7.40;99.90
42913;DHT22;50720;54.324;18.558;2024-03-23T01:23:23;7.40;99.90
42913;DHT22;50720;54.324;18.558;2024-03-23T01:26:07;7.40;99.90
42913;DHT22;50720;54.324;18.558;2024-03-23T01:28:48;7.30;99.90
42913;DHT22;50720;54.324;18.558;2024-03-23T01:31:31;7.30;99.90
42913;DHT22;50720;54.324;18.558;2024-03-23T01:36:56;7.40;99.90
42913;DHT22;50720;54.324;18.558;2024-03-23T01:42:21;7.30;99.90
42913;DHT22;50720;54.324;18.558;2024-03-23T01:45:08;7.30;99.90
42913;DHT22;50720;54.324;18.558;2024-03-23T01:47:51;7.30;99.90
42913;DHT22;50720;54.324;18.558;2024-03-23T01:50:34;7.30;99.90
42913;DHT22;50720;54.324;18.558;2024-03-23T01:55:58;7.20;99.90
42913;DHT22;50720;54.324;18.558;2024-03-23T01:58:42;7.20;99.90
42913;DHT22;50720;54.324;18.558;2024-03-23T02:01:24;7.20;99.90
42913;DHT22;50720;54.324;18.558;2024-03-23T02:04:06;7.20;99.90
42913;DHT22;50720;54.324;18.558;2024-03-23T02:06:47;7.20;99.90
42913;DHT22;50720;54.324;18.558;2024-03-23T02:09:30;7.20;99.90
42913;DHT22;50720;54.324;18.558;2024-03-23T02:12:12;7.20;99.90
42913;DHT22;50720;54.324;18.558;2024-03-23T02:14:56;7.20;99.90
42913;DHT22;50720;54.324;18.558;2024-03-23T02:20:20;7.20;99.90
42913;DHT22;50720;54.324;18.558;2024-03-23T02:23:03;7.10;99.90
42913;DHT22;50720;54.324;18.558;2024-03-23T02:25:47;7.10;99.90
42913;DHT22;50720;54.324;18.558;2024-03-23T02:28:28;7.10;99.90
42913;DHT22;50720;54.324;18.558;2024-03-23T02:31:11;7.10;99.90
42913;DHT22;50720;54.324;18.558;2024-03-23T02:33:52;7.10;99.90
42913;DHT22;50720;54.324;18.558;2024-03-23T02:36:35;7.20;99.90
42913;DHT22;50720;54.324;18.558;2024-03-23T02:39:18;7.20;99.90
42913;DHT22;50720;54.324;18.558;2024-03-23T02:42:00;7.10;99.90
42913;DHT22;50720;54.324;18.558;2024-03-23T02:44:42;7.00;99.90
42913;DHT22;50720;54.324;18.558;2024-03-23T02:47:24;7.10;99.90
42913;DHT22;50720;54.324;18.558;2024-03-23T02:50:06;7.10;99.90
42913;DHT22;50720;54.324;18.558;2024-03-23T02:52:50;7.10;99.90
42913;DHT22;50720;54.324;18.558;2024-03-23T02:55:33;7.10;99.90
42913;DHT22;50720;54.324;18.558;2024-03-23T02:58:15;7.00;99.90
42913;DHT22;50720;54.324;18.558;2024-03-23T03:03:39;7.00;99.90
42913;DHT22;50720;54.324;18.558;2024-03-23T03:06:24;7.00;99.90
42913;DHT22;50720;54.324;18.558;2024-03-23T03:09:06;7.00;99.90
42913;DHT22;50720;54.324;18.558;2024-03-23T03:11:49;7.00;99.90
42913;DHT22;50720;54.324;18.558;2024-03-23T03:14:32;7.00;99.90
42913;DHT22;50720;54.324;18.558;2024-03-23T03:17:13;6.90;99.90
42913;DHT22;50720;54.324;18.558;2024-03-23T03:22:37;6.90;99.90
42913;DHT22;50720;54.324;18.558;2024-03-23T03:25:20;6.90;99.90
42913;DHT22;50720;54.324;18.558;2024-03-23T03:28:03;6.90;99.90
42913;DHT22;50720;54.324;18.558;2024-03-23T03:30:46;7.00;99.90
42913;DHT22;50720;54.324;18.558;2024-03-23T03:33:28;7.00;99.90
42913;DHT22;50720;54.324;18.558;2024-03-23T03:36:10;7.00;99.90
42913;DHT22;50720;54.324;18.558;2024-03-23T03:41:34;7.00;99.90
42913;DHT22;50720;54.324;18.558;2024-03-23T03:44:18;7.00;99.90
42913;DHT22;50720;54.324;18.558;2024-03-23T03:47:00;7.00;99.90
42913;DHT22;50720;54.324;18.558;2024-03-23T03:49:42;7.00;99.90
42913;DHT22;50720;54.324;18.558;2024-03-23T03:52:23;7.00;99.90
42913;DHT22;50720;54.324;18.558;2024-03-23T03:55:12;7.00;99.90
42913;DHT22;50720;54.324;18.558;2024-03-23T03:57:54;7.00;99.90
42913;DHT22;50720;54.324;18.558;2024-03-23T04:00:38;7.00;99.90
42913;DHT22;50720;54.324;18.558;2024-03-23T04:03:19;7.00;99.90
42913;DHT22;50720;54.324;18.558;2024-03-23T04:06:02;7.00;99.90
42913;DHT22;50720;54.324;18.558;2024-03-23T04:08:44;7.00;99.90
42913;DHT22;50720;54.324;18.558;2024-03-23T04:11:27;7.00;99.90
42913;DHT22;50720;54.324;18.558;2024-03-23T04:14:08;7.00;99.90
42913;DHT22;50720;54.324;18.558;2024-03-23T04:16:52;7.00;99.90
42913;DHT22;50720;54.324;18.558;2024-03-23T04:19:33;7.00;99.90
42913;DHT22;50720;54.324;18.558;2024-03-23T04:22:16;6.90;99.90
42913;DHT22;50720;54.324;18.558;2024-03-23T04:27:40;6.90;99.90
42913;DHT22;50720;54.324;18.558;2024-03-23T04:30:23;6.90;99.90
42913;DHT22;50720;54.324;18.558;2024-03-23T04:33:07;6.90;99.90
42913;DHT22;50720;54.324;18.558;2024-03-23T04:35:49;7.00;99.90
42913;DHT22;50720;54.324;18.558;2024-03-23T04:38:32;6.90;99.90
42913;DHT22;50720;54.324;18.558;2024-03-23T04:41:14;6.90;99.90
42913;DHT22;50720;54.324;18.558;2024-03-23T04:43:57;6.90;99.90
42913;DHT22;50720;54.324;18.558;2024-03-23T04:46:39;6.90;99.90
42913;DHT22;50720;54.324;18.558;2024-03-23T04:49:23;6.90;99.90
42913;DHT22;50720;54.324;18.558;2024-03-23T04:52:05;6.90;99.90
42913;DHT22;50720;54.324;18.558;2024-03-23T04:54:48;6.90;99.90
42913;DHT22;50720;54.324;18.558;2024-03-23T04:57:31;6.90;99.90
42913;DHT22;50720;54.324;18.558;2024-03-23T05:00:14;6.90;99.90
42913;DHT22;50720;54.324;18.558;2024-03-23T05:02:58;6.90;99.90
42913;DHT22;50720;54.324;18.558;2024-03-23T05:05:42;6.90;99.90
42913;DHT22;50720;54.324;18.558;2024-03-23T05:08:23;6.90;99.90
42913;DHT22;50720;54.324;18.558;2024-03-23T05:11:06;6.90;99.90
42913;DHT22;50720;54.324;18.558;2024-03-23T05:13:47;6.90;99.90
42913;DHT22;50720;54.324;18.558;2024-03-23T05:16:30;6.90;99.90
42913;DHT22;50720;54.324;18.558;2024-03-23T05:19:12;6.90;99.90
42913;DHT22;50720;54.324;18.558;2024-03-23T05:21:55;6.90;99.90
42913;DHT22;50720;54.324;18.558;2024-03-23T05:24:38;6.90;99.90
42913;DHT22;50720;54.324;18.558;2024-03-23T05:27:19;6.90;99.90
42913;DHT22;50720;54.324;18.558;2024-03-23T05:30:02;6.90;99.90
42913;DHT22;50720;54.324;18.558;2024-03-23T05:32:44;7.00;99.90
42913;DHT22;50720;54.324;18.558;2024-03-23T05:35:27;6.90;99.90
42913;DHT22;50720;54.324;18.558;2024-03-23T05:38:10;7.00;99.90
42913;DHT22;50720;54.324;18.558;2024-03-23T05:40:56;7.00;99.90
42913;DHT22;50720;54.324;18.558;2024-03-23T05:43:38;7.10;99.90
42913;DHT22;50720;54.324;18.558;2024-03-23T05:46:20;7.00;99.90
42913;DHT22;50720;54.324;18.558;2024-03-23T05:49:02;7.10;99.90
42913;DHT22;50720;54.324;18.558;2024-03-23T05:51:45;7.10;99.90
42913;DHT22;50720;54.324;18.558;2024-03-23T05:54:28;7.10;99.90
42913;DHT22;50720;54.324;18.558;2024-03-23T05:57:10;7.10;99.90
42913;DHT22;50720;54.324;18.558;2024-03-23T05:59:53;7.10;99.90
42913;DHT22;50720;54.324;18.558;2024-03-23T06:02:35;7.00;99.90
42913;DHT22;50720;54.324;18.558;2024-03-23T06:05:16;7.00;99.90
42913;DHT22;50720;54.324;18.558;2024-03-23T06:07:59;7.10;99.90
42913;DHT22;50720;54.324;18.558;2024-03-23T06:10:42;7.10;99.90
42913;DHT22;50720;54.324;18.558;2024-03-23T06:13:25;7.10;99.90
42913;DHT22;50720;54.324;18.558;2024-03-23T06:16:10;7.10;99.90
42913;DHT22;50720;54.324;18.558;2024-03-23T06:18:53;7.10;99.90
42913;DHT22;50720;54.324;18.558;2024-03-23T06:21:35;7.10;99.90
42913;DHT22;50720;54.324;18.558;2024-03-23T06:27:01;7.10;99.90
42913;DHT22;50720;54.324;18.558;2024-03-23T06:29:44;7.10;99.90
42913;DHT22;50720;54.324;18.558;2024-03-23T06:32:25;7.10;99.90
42913;DHT22;50720;54.324;18.558;2024-03-23T06:35:08;7.10;99.90
42913;DHT22;50720;54.324;18.558;2024-03-23T06:37:50;7.10;99.90
42913;DHT22;50720;54.324;18.558;2024-03-23T06:40:32;7.10;99.90
42913;DHT22;50720;54.324;18.558;2024-03-23T06:43:15;7.00;99.90
42913;DHT22;50720;54.324;18.558;2024-03-23T06:45:58;7.10;99.90
42913;DHT22;50720;54.324;18.558;2024-03-23T06:48:39;7.00;99.90
42913;DHT22;50720;54.324;18.558;2024-03-23T06:54:04;7.00;99.90
42913;DHT22;50720;54.324;18.558;2024-03-23T06:56:46;7.00;99.90
42913;DHT22;50720;54.324;18.558;2024-03-23T06:59:29;7.10;99.90
42913;DHT22;50720;54.324;18.558;2024-03-23T07:02:12;7.00;99.90
42913;DHT22;50720;54.324;18.558;2024-03-23T07:04:53;7.10;99.90
42913;DHT22;50720;54.324;18.558;2024-03-23T07:07:36;7.10;99.90
42913;DHT22;50720;54.324;18.558;2024-03-23T07:13:00;7.00;99.90
42913;DHT22;50720;54.324;18.558;2024-03-23T07:15:43;7.00;99.90
42913;DHT22;50720;54.324;18.558;2024-03-23T07:21:07;7.00;99.90
42913;DHT22;50720;54.324;18.558;2024-03-23T07:23:50;7.00;99.90
42913;DHT22;50720;54.324;18.558;2024-03-23T07:26:31;7.00;99.90
42913;DHT22;50720;54.324;18.558;2024-03-23T07:29:13;7.00;99.90
42913;DHT22;50720;54.324;18.558;2024-03-23T07:31:56;7.00;99.90
42913;DHT22;50720;54.324;18.558;2024-03-23T07:37:20;7.10;99.90
42913;DHT22;50720;54.324;18.558;2024-03-23T07:40:03;7.20;99.90
42913;DHT22;50720;54.324;18.558;2024-03-23T07:42:45;7.20;99.90
42913;DHT22;50720;54.324;18.558;2024-03-23T07:48:11;7.20;99.90
42913;DHT22;50720;54.324;18.558;2024-03-23T07:50:58;7.20;99.90
42913;DHT22;50720;54.324;18.558;2024-03-23T07:53:43;7.20;99.90
42913;DHT22;50720;54.324;18.558;2024-03-23T07:56:25;7.30;99.90
42913;DHT22;50720;54.324;18.558;2024-03-23T07:59:07;7.20;99.90
42913;DHT22;50720;54.324;18.558;2024-03-23T08:04:33;7.20;99.90
42913;DHT22;50720;54.324;18.558;2024-03-23T08:07:14;7.20;99.90
42913;DHT22;50720;54.324;18.558;2024-03-23T08:09:57;7.20;99.90
42913;DHT22;50720;54.324;18.558;2024-03-23T08:12:40;7.00;99.90
42913;DHT22;50720;54.324;18.558;2024-03-23T08:18:05;6.70;99.90
42913;DHT22;50720;54.324;18.558;2024-03-23T08:20:55;6.60;99.90
42913;DHT22;50720;54.324;18.558;2024-03-23T08:23:37;6.50;99.90
42913;DHT22;50720;54.324;18.558;2024-03-23T08:29:02;6.50;99.90
42913;DHT22;50720;54.324;18.558;2024-03-23T08:31:44;6.70;99.90
42913;DHT22;50720;54.324;18.558;2024-03-23T08:34:26;6.70;99.90
42913;DHT22;50720;54.324;18.558;2024-03-23T08:37:10;6.60;99.90
42913;DHT22;50720;54.324;18.558;2024-03-23T08:39:51;6.70;99.90
42913;DHT22;50720;54.324;18.558;2024-03-23T08:42:34;6.70;99.90
42913;DHT22;50720;54.324;18.558;2024-03-23T08:47:58;6.80;99.90
42913;DHT22;50720;54.324;18.558;2024-03-23T08:53:24;7.00;99.90
42913;DHT22;50720;54.324;18.558;2024-03-23T08:56:07;7.10;99.90
42913;DHT22;50720;54.324;18.558;2024-03-23T08:58:50;7.20;99.90
42913;DHT22;50720;54.324;18.558;2024-03-23T09:01:31;7.40;99.90
42913;DHT22;50720;54.324;18.558;2024-03-23T09:04:13;7.50;99.90
42913;DHT22;50720;54.324;18.558;2024-03-23T09:06:55;7.70;99.90
42913;DHT22;50720;54.324;18.558;2024-03-23T09:09:41;7.70;99.90
42913;DHT22;50720;54.324;18.558;2024-03-23T09:12:23;7.80;99.90
42913;DHT22;50720;54.324;18.558;2024-03-23T09:15:06;7.80;99.90
42913;DHT22;50720;54.324;18.558;2024-03-23T09:20:33;7.90;99.90
42913;DHT22;50720;54.324;18.558;2024-03-23T09:23:15;7.90;99.90
42913;DHT22;50720;54.324;18.558;2024-03-23T09:26:03;7.90;99.90
42913;DHT22;50720;54.324;18.558;2024-03-23T09:28:48;7.90;99.90
42913;DHT22;50720;54.324;18.558;2024-03-23T09:31:29;7.80;99.90
42913;DHT22;50720;54.324;18.558;2024-03-23T09:34:12;7.80;99.90
42913;DHT22;50720;54.324;18.558;2024-03-23T09:36:53;7.90;99.90
42913;DHT22;50720;54.324;18.558;2024-03-23T09:39:36;7.90;99.90
42913;DHT22;50720;54.324;18.558;2024-03-23T09:42:19;8.10;99.90
42913;DHT22;50720;54.324;18.558;2024-03-23T09:45:01;8.10;99.90
42913;DHT22;50720;54.324;18.558;2024-03-23T09:47:43;8.10;99.90
42913;DHT22;50720;54.324;18.558;2024-03-23T09:50:27;8.10;99.90
42913;DHT22;50720;54.324;18.558;2024-03-23T09:53:09;8.10;99.90
42913;DHT22;50720;54.324;18.558;2024-03-23T09:55:52;8.10;99.90
42913;DHT22;50720;54.324;18.558;2024-03-23T09:58:36;8.00;99.90
42913;DHT22;50720;54.324;18.558;2024-03-23T10:04:00;8.00;99.90
42913;DHT22;50720;54.324;18.558;2024-03-23T10:09:26;8.00;99.90
42913;DHT22;50720;54.324;18.558;2024-03-23T10:12:12;8.10;99.90
42913;DHT22;50720;54.324;18.558;2024-03-23T10:14:56;8.20;99.90
42913;DHT22;50720;54.324;18.558;2024-03-23T10:17:38;8.40;99.90
42913;DHT22;50720;54.324;18.558;2024-03-23T10:20:20;8.50;99.90
42913;DHT22;50720;54.324;18.558;2024-03-23T10:25:45;8.70;99.90
42913;DHT22;50720;54.324;18.558;2024-03-23T10:31:12;8.90;99.90
42913;DHT22;50720;54.324;18.558;2024-03-23T10:33:54;8.90;99.90
42913;DHT22;50720;54.324;18.558;2024-03-23T10:36:38;8.90;99.90
42913;DHT22;50720;54.324;18.558;2024-03-23T10:39:22;8.90;99.90
42913;DHT22;50720;54.324;18.558;2024-03-23T10:42:06;8.70;99.90
42913;DHT22;50720;54.324;18.558;2024-03-23T10:47:34;8.70;99.90
42913;DHT22;50720;54.324;18.558;2024-03-23T10:50:18;8.60;99.90
42913;DHT22;50720;54.324;18.558;2024-03-23T10:55:42;8.70;99.90
42913;DHT22;50720;54.324;18.558;2024-03-23T10:58:27;8.80;99.90
42913;DHT22;50720;54.324;18.558;2024-03-23T11:01:11;8.80;99.90
42913;DHT22;50720;54.324;18.558;2024-03-23T11:03:54;8.80;99.90
42913;DHT22;50720;54.324;18.558;2024-03-23T11:06:37;8.80;99.90
42913;DHT22;50720;54.324;18.558;2024-03-23T11:09:44;8.70;99.90
42913;DHT22;50720;54.324;18.558;2024-03-23T11:12:30;8.60;99.90
42913;DHT22;50720;54.324;18.558;2024-03-23T11:15:14;8.50;99.90
42913;DHT22;50720;54.324;18.558;2024-03-23T11:18:03;8.60;99.90
42913;DHT22;50720;54.324;18.558;2024-03-23T11:20:47;8.60;99.90
42913;DHT22;50720;54.324;18.558;2024-03-23T11:26:11;8.70;99.90
42913;DHT22;50720;54.324;18.558;2024-03-23T11:29:09;8.70;99.90
42913;DHT22;50720;54.324;18.558;2024-03-23T11:31:51;8.80;99.90
42913;DHT22;50720;54.324;18.558;2024-03-23T11:34:34;8.80;99.90
42913;DHT22;50720;54.324;18.558;2024-03-23T11:37:18;8.80;99.90
42913;DHT22;50720;54.324;18.558;2024-03-23T11:40:01;8.70;99.90
42913;DHT22;50720;54.324;18.558;2024-03-23T11:42:58;8.60;99.90
42913;DHT22;50720;54.324;18.558;2024-03-23T11:45:43;8.50;99.90
42913;DHT22;50720;54.324;18.558;2024-03-23T11:48:25;8.70;99.90
42913;DHT22;50720;54.324;18.558;2024-03-23T11:51:08;8.70;99.90
42913;DHT22;50720;54.324;18.558;2024-03-23T11:53:51;8.70;99.90
42913;DHT22;50720;54.324;18.558;2024-03-23T11:56:33;8.70;99.90
42913;DHT22;50720;54.324;18.558;2024-03-23T11:59:30;8.80;99.90
42913;DHT22;50720;54.324;18.558;2024-03-23T12:02:13;8.70;99.90
42913;DHT22;50720;54.324;18.558;2024-03-23T12:04:55;8.70;99.90
42913;DHT22;50720;54.324;18.558;2024-03-23T12:07:38;8.50;99.90
42913;DHT22;50720;54.324;18.558;2024-03-23T12:10:21;8.50;99.90
42913;DHT22;50720;54.324;18.558;2024-03-23T12:13:03;8.40;99.90
42913;DHT22;50720;54.324;18.558;2024-03-23T12:15:46;8.40;99.90
42913;DHT22;50720;54.324;18.558;2024-03-23T12:21:11;8.40;99.90
42913;DHT22;50720;54.324;18.558;2024-03-23T12:23:54;8.50;99.90
42913;DHT22;50720;54.324;18.558;2024-03-23T12:26:37;8.50;99.90
42913;DHT22;50720;54.324;18.558;2024-03-23T12:29:20;8.40;99.90
42913;DHT22;50720;54.324;18.558;2024-03-23T12:32:04;8.30;99.90
42913;DHT22;50720;54.324;18.558;2024-03-23T12:34:45;8.30;99.90
42913;DHT22;50720;54.324;18.558;2024-03-23T12:37:30;8.20;99.90
42913;DHT22;50720;54.324;18.558;2024-03-23T12:40:11;8.10;99.90
42913;DHT22;50720;54.324;18.558;2024-03-23T12:42:55;8.10;99.90
42913;DHT22;50720;54.324;18.558;2024-03-23T12:45:38;8.00;99.90
42913;DHT22;50720;54.324;18.558;2024-03-23T12:51:02;8.10;99.90
42913;DHT22;50720;54.324;18.558;2024-03-23T12:53:44;8.20;99.90
42913;DHT22;50720;54.324;18.558;2024-03-23T12:56:26;8.20;99.90
42913;DHT22;50720;54.324;18.558;2024-03-23T12:59:10;8.30;99.90
42913;DHT22;50720;54.324;18.558;2024-03-23T13:01:54;8.50;99.90
42913;DHT22;50720;54.324;18.558;2024-03-23T13:04:37;8.50;99.90
42913;DHT22;50720;54.324;18.558;2024-03-23T13:07:20;8.50;99.90
42913;DHT22;50720;54.324;18.558;2024-03-23T13:10:02;8.70;99.90
42913;DHT22;50720;54.324;18.558;2024-03-23T13:12:45;8.80;99.90
42913;DHT22;50720;54.324;18.558;2024-03-23T13:15:27;8.80;99.90
42913;DHT22;50720;54.324;18.558;2024-03-23T13:18:10;8.70;99.90
42913;DHT22;50720;54.324;18.558;2024-03-23T13:20:51;8.80;99.90
42913;DHT22;50720;54.324;18.558;2024-03-23T13:23:34;8.70;99.90
42913;DHT22;50720;54.324;18.558;2024-03-23T13:26:16;8.60;99.90
42913;DHT22;50720;54.324;18.558;2024-03-23T13:28:59;8.50;99.90
42913;DHT22;50720;54.324;18.558;2024-03-23T13:31:42;8.50;99.90
42913;DHT22;50720;54.324;18.558;2024-03-23T13:34:24;8.30;99.90
42913;DHT22;50720;54.324;18.558;2024-03-23T13:37:07;8.30;99.90
42913;DHT22;50720;54.324;18.558;2024-03-23T13:39:48;8.30;99.90
42913;DHT22;50720;54.324;18.558;2024-03-23T13:42:30;8.20;99.90
42913;DHT22;50720;54.324;18.558;2024-03-23T13:45:12;8.20;99.90
42913;DHT22;50720;54.324;18.558;2024-03-23T13:47:59;8.10;99.90
42913;DHT22;50720;54.324;18.558;2024-03-23T13:50:40;8.10;99.90
42913;DHT22;50720;54.324;18.558;2024-03-23T13:53:22;8.10;99.90
42913;DHT22;50720;54.324;18.558;2024-03-23T13:56:05;8.00;99.90
42913;DHT22;50720;54.324;18.558;2024-03-23T13:58:47;8.00;99.90
42913;DHT22;50720;54.324;18.558;2024-03-23T14:01:29;8.00;99.90
42913;DHT22;50720;54.324;18.558;2024-03-23T14:04:14;8.10;99.90
42913;DHT22;50720;54.324;18.558;2024-03-23T14:06:57;8.00;99.90
42913;DHT22;50720;54.324;18.558;2024-03-23T14:09:41;7.90;99.90
42913;DHT22;50720;54.324;18.558;2024-03-23T14:12:23;7.80;99.90
42913;DHT22;50720;54.324;18.558;2024-03-23T14:15:07;7.60;99.90
42913;DHT22;50720;54.324;18.558;2024-03-23T14:17:50;7.80;99.90
42913;DHT22;50720;54.324;18.558;2024-03-23T14:20:33;7.80;99.90
42913;DHT22;50720;54.324;18.558;2024-03-23T14:23:15;7.80;99.90
42913;DHT22;50720;54.324;18.558;2024-03-23T14:25:58;7.90;99.90
42913;DHT22;50720;54.324;18.558;2024-03-23T14:28:39;7.90;99.90
42913;DHT22;50720;54.324;18.558;2024-03-23T14:31:22;8.00;99.90
42913;DHT22;50720;54.324;18.558;2024-03-23T14:34:04;7.90;99.90
42913;DHT22;50720;54.324;18.558;2024-03-23T14:36:48;7.80;99.90
42913;DHT22;50720;54.324;18.558;2024-03-23T14:39:29;7.70;99.90
42913;DHT22;50720;54.324;18.558;2024-03-23T14:42:12;7.70;99.90
42913;DHT22;50720;54.324;18.558;2024-03-23T14:47:36;7.60;99.90
42913;DHT22;50720;54.324;18.558;2024-03-23T14:50:18;7.40;99.90
42913;DHT22;50720;54.324;18.558;2024-03-23T14:53:04;7.40;99.90
42913;DHT22;50720;54.324;18.558;2024-03-23T14:58:30;7.20;99.90
42913;DHT22;50720;54.324;18.558;2024-03-23T15:03:54;7.00;99.90
42913;DHT22;50720;54.324;18.558;2024-03-23T15:06:37;6.90;99.90
42913;DHT22;50720;54.324;18.558;2024-03-23T15:09:19;6.80;99.90
42913;DHT22;50720;54.324;18.558;2024-03-23T15:12:02;6.80;99.90
42913;DHT22;50720;54.324;18.558;2024-03-23T15:14:44;6.70;99.90
42913;DHT22;50720;54.324;18.558;2024-03-23T15:17:27;6.70;99.90
42913;DHT22;50720;54.324;18.558;2024-03-23T15:20:09;6.70;99.90
42913;DHT22;50720;54.324;18.558;2024-03-23T15:22:52;6.70;99.90
42913;DHT22;50720;54.324;18.558;2024-03-23T15:25:35;6.70;99.90
42913;DHT22;50720;54.324;18.558;2024-03-23T15:30:59;6.60;99.90
42913;DHT22;50720;54.324;18.558;2024-03-23T15:33:43;6.60;99.90
42913;DHT22;50720;54.324;18.558;2024-03-23T15:39:08;6.50;99.90
42913;DHT22;50720;54.324;18.558;2024-03-23T15:41:51;6.50;99.90
42913;DHT22;50720;54.324;18.558;2024-03-23T15:47:17;6.50;99.90
42913;DHT22;50720;54.324;18.558;2024-03-23T15:50:00;6.40;99.90
42913;DHT22;50720;54.324;18.558;2024-03-23T15:52:44;6.40;99.90
42913;DHT22;50720;54.324;18.558;2024-03-23T15:55:25;6.50;99.90
42913;DHT22;50720;54.324;18.558;2024-03-23T15:58:09;6.40;99.90
42913;DHT22;50720;54.324;18.558;2024-03-23T16:00:54;6.40;99.90
42913;DHT22;50720;54.324;18.558;2024-03-23T16:03:37;6.40;99.90
42913;DHT22;50720;54.324;18.558;2024-03-23T16:06:20;6.30;99.90
42913;DHT22;50720;54.324;18.558;2024-03-23T16:09:01;6.40;99.90
42913;DHT22;50720;54.324;18.558;2024-03-23T16:11:44;6.30;99.90
42913;DHT22;50720;54.324;18.558;2024-03-23T16:14:26;6.30;99.90
42913;DHT22;50720;54.324;18.558;2024-03-23T16:19:50;6.30;99.90
42913;DHT22;50720;54.324;18.558;2024-03-23T16:22:33;6.30;99.90
42913;DHT22;50720;54.324;18.558;2024-03-23T16:25:14;6.30;99.90
42913;DHT22;50720;54.324;18.558;2024-03-23T16:27:57;6.40;99.90
42913;DHT22;50720;54.324;18.558;2024-03-23T16:30:40;6.40;99.90
42913;DHT22;50720;54.324;18.558;2024-03-23T16:33:22;6.30;99.90
42913;DHT22;50720;54.324;18.558;2024-03-23T16:36:05;6.40;99.90
42913;DHT22;50720;54.324;18.558;2024-03-23T16:41:30;6.40;99.90
42913;DHT22;50720;54.324;18.558;2024-03-23T16:44:12;6.40;99.90
42913;DHT22;50720;54.324;18.558;2024-03-23T16:46:55;6.50;99.90
42913;DHT22;50720;54.324;18.558;2024-03-23T16:49:37;6.50;99.90
42913;DHT22;50720;54.324;18.558;2024-03-23T16:52:19;6.60;99.90
42913;DHT22;50720;54.324;18.558;2024-03-23T16:57:43;6.60;99.90
42913;DHT22;50720;54.324;18.558;2024-03-23T17:03:09;6.60;99.90
42913;DHT22;50720;54.324;18.558;2024-03-23T17:05:51;6.50;99.90
42913;DHT22;50720;54.324;18.558;2024-03-23T17:08:33;6.50;99.90
42913;DHT22;50720;54.324;18.558;2024-03-23T17:11:16;6.50;99.90
42913;DHT22;50720;54.324;18.558;2024-03-23T17:13:59;6.50;99.90
42913;DHT22;50720;54.324;18.558;2024-03-23T17:16:42;6.50;99.90
42913;DHT22;50720;54.324;18.558;2024-03-23T17:19:25;6.50;99.90
42913;DHT22;50720;54.324;18.558;2024-03-23T17:22:08;6.40;99.90
42913;DHT22;50720;54.324;18.558;2024-03-23T17:24:52;6.50;99.90
42913;DHT22;50720;54.324;18.558;2024-03-23T17:27:34;6.50;99.90
42913;DHT22;50720;54.324;18.558;2024-03-23T17:32:58;6.50;99.90
42913;DHT22;50720;54.324;18.558;2024-03-23T17:35:41;6.50;99.90
42913;DHT22;50720;54.324;18.558;2024-03-23T17:38:23;6.40;99.90
42913;DHT22;50720;54.324;18.558;2024-03-23T17:41:06;6.40;99.90
42913;DHT22;50720;54.324;18.558;2024-03-23T17:43:47;6.40;99.90
42913;DHT22;50720;54.324;18.558;2024-03-23T17:46:30;6.30;99.90
42913;DHT22;50720;54.324;18.558;2024-03-23T17:49:11;6.30;99.90
42913;DHT22;50720;54.324;18.558;2024-03-23T17:52:00;6.30;99.90
42913;DHT22;50720;54.324;18.558;2024-03-23T17:54:41;6.30;99.90
42913;DHT22;50720;54.324;18.558;2024-03-23T17:57:24;6.20;99.90
42913;DHT22;50720;54.324;18.558;2024-03-23T18:00:07;6.20;99.90
42913;DHT22;50720;54.324;18.558;2024-03-23T18:02:49;6.10;99.90
42913;DHT22;50720;54.324;18.558;2024-03-23T18:05:31;6.00;99.90
42913;DHT22;50720;54.324;18.558;2024-03-23T18:08:15;6.00;99.90
42913;DHT22;50720;54.324;18.558;2024-03-23T18:13:39;5.80;99.90
42913;DHT22;50720;54.324;18.558;2024-03-23T18:16:20;5.80;99.90
42913;DHT22;50720;54.324;18.558;2024-03-23T18:21:45;5.80;99.90
42913;DHT22;50720;54.324;18.558;2024-03-23T18:24:29;5.70;99.90
42913;DHT22;50720;54.324;18.558;2024-03-23T18:27:11;5.60;99.90
42913;DHT22;50720;54.324;18.558;2024-03-23T18:29:55;5.50;99.90
42913;DHT22;50720;54.324;18.558;2024-03-23T18:32:36;5.50;99.90
42913;DHT22;50720;54.324;18.558;2024-03-23T18:35:18;5.50;99.90
42913;DHT22;50720;54.324;18.558;2024-03-23T18:38:00;5.50;99.90
42913;DHT22;50720;54.324;18.558;2024-03-23T18:40:46;5.50;99.90
42913;DHT22;50720;54.324;18.558;2024-03-23T18:43:27;5.30;99.90
42913;DHT22;50720;54.324;18.558;2024-03-23T18:46:09;5.30;99.90
42913;DHT22;50720;54.324;18.558;2024-03-23T18:51:33;5.20;99.90
42913;DHT22;50720;54.324;18.558;2024-03-23T18:54:15;5.10;99.90
42913;DHT22;50720;54.324;18.558;2024-03-23T18:56:58;5.10;99.90
42913;DHT22;50720;54.324;18.558;2024-03-23T18:59:40;5.00;99.90
42913;DHT22;50720;54.324;18.558;2024-03-23T19:02:22;4.90;99.90
42913;DHT22;50720;54.324;18.558;2024-03-23T19:05:04;4.90;99.90
42913;DHT22;50720;54.324;18.558;2024-03-23T19:07:47;4.80;99.90
42913;DHT22;50720;54.324;18.558;2024-03-23T19:10:28;4.80;99.90
42913;DHT22;50720;54.324;18.558;2024-03-23T19:13:12;4.80;99.90
42913;DHT22;50720;54.324;18.558;2024-03-23T19:15:54;4.70;99.90
42913;DHT22;50720;54.324;18.558;2024-03-23T19:21:20;4.70;99.90
42913;DHT22;50720;54.324;18.558;2024-03-23T19:24:05;4.60;99.90
42913;DHT22;50720;54.324;18.558;2024-03-23T19:26:47;4.70;99.90
42913;DHT22;50720;54.324;18.558;2024-03-23T19:29:30;4.60;99.90
42913;DHT22;50720;54.324;18.558;2024-03-23T19:32:12;4.60;99.90
42913;DHT22;50720;54.324;18.558;2024-03-23T19:34:54;4.60;99.90
42913;DHT22;50720;54.324;18.558;2024-03-23T19:40:18;4.50;99.90
42913;DHT22;50720;54.324;18.558;2024-03-23T19:45:44;4.50;99.90
42913;DHT22;50720;54.324;18.558;2024-03-23T19:48:26;4.50;99.90
42913;DHT22;50720;54.324;18.558;2024-03-23T19:51:08;4.50;99.90
42913;DHT22;50720;54.324;18.558;2024-03-23T19:53:50;4.50;99.90
42913;DHT22;50720;54.324;18.558;2024-03-23T19:59:15;4.50;99.90
42913;DHT22;50720;54.324;18.558;2024-03-23T20:01:59;4.40;99.90
42913;DHT22;50720;54.324;18.558;2024-03-23T20:04:40;4.40;99.90
42913;DHT22;50720;54.324;18.558;2024-03-23T20:07:22;4.40;99.90
42913;DHT22;50720;54.324;18.558;2024-03-23T20:10:05;4.50;99.90
42913;DHT22;50720;54.324;18.558;2024-03-23T20:15:29;4.50;99.90